createdAt,value
2018-08-20T00:00:44.426Z,8.63
2018-08-20T00:03:12.738Z,9.40
2018-08-20T00:05:43.185Z,9.03
2018-08-20T00:08:11.322Z,8.27
2018-08-20T00:10:39.610Z,8.60
2018-08-20T00:13:07.801Z,8.57
2018-08-20T00:15:35.930Z,8.63
2018-08-20T00:18:04.052Z,8.87
2018-08-20T00:20:32.186Z,8.43
2018-08-20T00:23:00.293Z,8.43
2018-08-20T00:25:28.447Z,10.27
2018-08-20T00:27:56.562Z,8.37
2018-08-20T00:30:24.703Z,8.90
2018-08-20T00:32:54.515Z,7.83
2018-08-20T00:35:22.648Z,8.40
2018-08-20T00:37:51.981Z,8.80
2018-08-20T00:40:20.874Z,8.87
2018-08-20T00:42:49.140Z,8.77
2018-08-20T00:45:17.265Z,10.50
2018-08-20T00:47:45.383Z,8.47
2018-08-20T00:50:13.508Z,8.33
2018-08-20T00:52:41.630Z,8.43
2018-08-20T00:55:11.365Z,10.20
2018-08-20T00:57:39.951Z,8.70
2018-08-20T01:00:08.877Z,12.00
2018-08-20T01:02:37.001Z,9.00
2018-08-20T01:05:05.182Z,8.53
2018-08-20T01:07:33.295Z,9.30
2018-08-20T01:10:01.397Z,9.07
2018-08-20T01:12:29.517Z,8.73
2018-08-20T01:14:57.668Z,8.70
2018-08-20T01:17:25.811Z,10.37
2018-08-20T01:19:54.017Z,8.40
2018-08-20T01:22:22.139Z,10.83
2018-08-20T01:24:50.559Z,12.00
2018-08-20T01:27:24.094Z,9.27
2018-08-20T01:29:52.745Z,8.70
2018-08-20T01:32:20.922Z,8.67
2018-08-20T01:34:49.086Z,9.23
2018-08-20T01:37:18.599Z,9.30
2018-08-20T01:39:47.178Z,9.20
2018-08-20T01:42:16.274Z,8.97
2018-08-20T01:44:45.219Z,9.57
2018-08-20T01:47:13.369Z,8.60
2018-08-20T01:49:41.509Z,8.43
2018-08-20T01:52:09.695Z,8.53
2018-08-20T01:54:38.027Z,10.80
2018-08-20T01:57:07.078Z,8.70
2018-08-20T01:59:35.455Z,8.43
2018-08-20T02:02:03.590Z,10.63
2018-08-20T02:04:31.715Z,8.63
2018-08-20T02:07:00.062Z,8.40
2018-08-20T02:09:28.209Z,8.93
2018-08-20T02:11:56.366Z,9.27
2018-08-20T02:14:24.518Z,9.03
2018-08-20T02:16:52.658Z,8.40
2018-08-20T02:19:20.790Z,8.83
2018-08-20T02:21:48.974Z,9.07
2018-08-20T02:24:17.098Z,8.13
2018-08-20T02:26:45.256Z,8.73
2018-08-20T02:29:13.382Z,8.73
2018-08-20T02:31:41.539Z,8.57
2018-08-20T02:34:09.663Z,8.70
2018-08-20T02:36:37.791Z,8.73
2018-08-20T02:39:09.252Z,9.27
2018-08-20T02:41:37.374Z,8.13
2018-08-20T02:44:05.601Z,8.10
2018-08-20T02:46:48.243Z,11.07
2018-08-20T02:49:17.039Z,10.00
2018-08-20T02:51:45.715Z,8.50
2018-08-20T02:54:13.840Z,8.70
2018-08-20T02:56:42.396Z,8.37
2018-08-20T02:59:10.727Z,8.87
2018-08-20T03:01:38.885Z,8.90
2018-08-20T03:04:07.314Z,10.30
2018-08-20T03:06:35.890Z,8.93
2018-08-20T03:09:06.498Z,8.50
2018-08-20T03:11:34.610Z,8.73
2018-08-20T03:14:03.138Z,9.10
2018-08-20T03:16:31.279Z,8.80
2018-08-20T03:18:59.414Z,9.03
2018-08-20T03:21:27.871Z,9.57
2018-08-20T03:23:56.042Z,10.03
2018-08-20T03:26:24.170Z,10.87
2018-08-20T03:28:52.343Z,11.97
2018-08-20T03:31:20.478Z,11.50
2018-08-20T03:33:48.607Z,12.23
2018-08-20T03:36:16.778Z,11.97
2018-08-20T03:38:44.945Z,14.33
2018-08-20T03:41:13.071Z,12.67
2018-08-20T03:43:41.230Z,14.83
2018-08-20T03:46:09.370Z,16.13
2018-08-20T03:48:37.494Z,14.63
2018-08-20T03:51:05.698Z,14.67
2018-08-20T03:53:33.836Z,16.07
2018-08-20T03:56:01.988Z,16.37
2018-08-20T03:58:30.127Z,16.00
2018-08-20T04:00:58.278Z,13.10
2018-08-20T04:03:26.403Z,13.47
2018-08-20T04:05:54.551Z,12.10
2018-08-20T04:08:22.707Z,13.57
2018-08-20T04:10:50.866Z,15.10
2018-08-20T04:13:19.006Z,13.63
2018-08-20T04:15:47.162Z,11.97
2018-08-20T04:18:15.304Z,14.87
2018-08-20T04:20:43.439Z,13.70
2018-08-20T04:23:11.574Z,12.07
2018-08-20T04:25:39.733Z,12.57
2018-08-20T04:28:07.896Z,15.37
2018-08-20T04:30:36.101Z,12.47
2018-08-20T04:33:04.163Z,13.30
2018-08-20T04:35:32.308Z,12.30
2018-08-20T04:38:00.436Z,12.50
2018-08-20T04:40:28.562Z,12.03
2018-08-20T04:42:56.699Z,15.87
2018-08-20T04:45:31.606Z,13.27
2018-08-20T04:47:59.743Z,13.10
2018-08-20T04:50:28.095Z,11.43
2018-08-20T04:52:56.043Z,12.70
2018-08-20T04:55:24.238Z,12.80
2018-08-20T04:57:52.370Z,12.13
2018-08-20T05:00:20.651Z,10.23
2018-08-20T05:02:48.778Z,11.10
2018-08-20T05:05:16.957Z,10.60
2018-08-20T05:07:45.083Z,12.23
2018-08-20T05:10:13.216Z,9.27
2018-08-20T05:12:41.355Z,11.10
2018-08-20T05:15:10.031Z,10.83
2018-08-20T05:17:38.159Z,9.27
2018-08-20T05:20:06.918Z,9.67
2018-08-20T05:22:35.075Z,10.43
2018-08-20T05:25:03.242Z,8.97
2018-08-20T05:27:31.381Z,8.23
2018-08-20T05:29:59.505Z,7.70
2018-08-20T05:32:27.642Z,7.53
2018-08-20T05:34:55.766Z,7.47
2018-08-20T05:37:23.894Z,7.63
2018-08-20T05:39:52.052Z,10.33
2018-08-20T05:42:20.178Z,9.77
2018-08-20T05:44:48.334Z,7.60
2018-08-20T05:47:16.487Z,7.40
2018-08-20T05:49:44.633Z,7.93
2018-08-20T05:52:12.774Z,6.87
2018-08-20T05:54:40.894Z,7.37
2018-08-20T05:57:09.038Z,8.73
2018-08-20T05:59:37.170Z,8.00
2018-08-20T06:02:05.306Z,8.90
2018-08-20T06:04:33.427Z,7.10
2018-08-20T06:07:01.719Z,6.57
2018-08-20T06:09:29.847Z,7.97
2018-08-20T06:11:57.980Z,6.60
2018-08-20T06:14:32.149Z,7.07
2018-08-20T06:17:00.488Z,6.80
2018-08-20T06:19:28.860Z,7.50
2018-08-20T06:21:57.294Z,7.53
2018-08-20T06:24:25.398Z,6.87
2018-08-20T06:26:54.097Z,5.87
2018-08-20T06:29:22.989Z,7.87
2018-08-20T06:31:52.318Z,8.03
2018-08-20T06:34:20.422Z,7.90
2018-08-20T06:36:48.535Z,7.57
2018-08-20T06:39:21.759Z,7.20
2018-08-20T06:41:49.882Z,7.90
2018-08-20T06:44:18.016Z,8.17
2018-08-20T06:46:46.139Z,10.87
2018-08-20T06:49:15.839Z,7.47
2018-08-20T06:51:44.964Z,6.73
2018-08-20T06:54:14.021Z,7.80
2018-08-20T06:56:42.969Z,5.90
2018-08-20T06:59:11.968Z,6.70
2018-08-20T07:01:41.085Z,7.07
2018-08-20T07:04:09.833Z,5.50
2018-08-20T07:06:38.455Z,6.30
2018-08-20T07:09:07.958Z,5.27
2018-08-20T07:11:36.795Z,5.53
2018-08-20T07:14:06.304Z,3.90
2018-08-20T07:16:34.423Z,6.20
2018-08-20T07:19:02.566Z,4.27
2018-08-20T07:21:31.345Z,4.13
2018-08-20T07:23:59.568Z,5.07
2018-08-20T07:26:27.646Z,5.70
2018-08-20T07:28:55.805Z,4.20
2018-08-20T07:31:23.939Z,5.47
2018-08-20T07:33:52.512Z,4.43
2018-08-20T07:36:21.343Z,4.27
2018-08-20T07:38:49.483Z,6.13
2018-08-20T07:41:17.809Z,5.40
2018-08-20T07:43:45.950Z,5.37
2018-08-20T07:46:14.094Z,5.33
2018-08-20T07:48:42.319Z,5.20
2018-08-20T07:51:10.463Z,4.90
2018-08-20T07:53:38.612Z,5.53
2018-08-20T07:56:07.063Z,4.87
2018-08-20T07:58:35.226Z,6.50
2018-08-20T08:01:03.378Z,8.13
2018-08-20T08:03:32.278Z,5.10
2018-08-20T08:06:02.589Z,4.53
2018-08-20T08:08:30.747Z,5.10
2018-08-20T08:10:58.906Z,4.90
2018-08-20T08:13:27.043Z,5.20
2018-08-20T08:15:55.268Z,5.10
2018-08-20T08:18:23.387Z,4.87
2018-08-20T08:20:51.506Z,5.60
2018-08-20T08:23:19.644Z,8.03
2018-08-20T08:25:47.766Z,5.60
2018-08-20T08:28:15.903Z,5.00
2018-08-20T08:30:44.029Z,5.03
2018-08-20T08:33:12.150Z,5.20
2018-08-20T08:35:40.326Z,5.00
2018-08-20T08:38:08.535Z,6.00
2018-08-20T08:40:36.598Z,5.30
2018-08-20T08:43:04.735Z,6.83
2018-08-20T08:45:32.906Z,5.47
2018-08-20T08:48:01.026Z,5.90
2018-08-20T08:50:29.162Z,5.70
2018-08-20T08:52:57.298Z,6.43
2018-08-20T08:55:25.443Z,7.30
2018-08-20T08:57:53.578Z,5.20
2018-08-20T09:00:21.812Z,6.20
2018-08-20T09:02:49.963Z,4.87
2018-08-20T09:05:18.079Z,4.70
2018-08-20T09:07:46.214Z,5.60
2018-08-20T09:10:14.350Z,5.03
2018-08-20T09:12:42.685Z,7.30
2018-08-20T09:15:13.292Z,4.90
2018-08-20T09:17:41.632Z,5.40
2018-08-20T09:20:11.792Z,4.50
2018-08-20T09:22:40.159Z,4.90
2018-08-20T09:25:09.574Z,5.63
2018-08-20T09:27:37.706Z,4.00
2018-08-20T09:30:10.915Z,6.10
2018-08-20T09:32:39.097Z,5.57
2018-08-20T09:35:08.239Z,4.60
2018-08-20T09:37:36.463Z,4.57
2018-08-20T09:40:05.499Z,4.00
2018-08-20T09:42:33.636Z,4.00
2018-08-20T09:45:01.883Z,4.37
2018-08-20T09:47:30.006Z,5.40
2018-08-20T09:49:58.539Z,4.50
2018-08-20T09:52:26.674Z,5.40
2018-08-20T09:54:54.843Z,3.63
2018-08-20T09:57:23.155Z,3.70
2018-08-20T09:59:51.374Z,8.10
2018-08-20T10:02:19.534Z,5.07
2018-08-20T10:04:47.650Z,3.53
2018-08-20T10:07:15.783Z,6.17
2018-08-20T10:09:44.002Z,4.03
2018-08-20T10:12:12.090Z,3.20
2018-08-20T10:14:40.226Z,5.23
2018-08-20T10:17:08.427Z,3.77
2018-08-20T10:19:36.540Z,3.90
2018-08-20T10:22:04.676Z,5.17
2018-08-20T10:24:32.939Z,7.50
2018-08-20T10:27:01.017Z,5.97
2018-08-20T10:29:29.158Z,5.60
2018-08-20T10:31:57.332Z,5.33
2018-08-20T10:34:25.639Z,5.47
2018-08-20T10:36:53.895Z,4.77
2018-08-20T10:39:22.112Z,5.43
2018-08-20T10:41:50.262Z,4.13
2018-08-20T10:44:18.432Z,7.73
2018-08-20T10:46:46.600Z,5.30
2018-08-20T10:49:14.811Z,4.70
2018-08-20T10:51:43.066Z,7.33
2018-08-20T10:54:11.229Z,6.43
2018-08-20T10:56:39.413Z,6.50
2018-08-20T10:59:07.551Z,5.27
2018-08-20T11:01:35.698Z,7.53
2018-08-20T11:04:03.822Z,4.73
2018-08-20T11:06:32.116Z,5.10
2018-08-20T11:09:00.273Z,5.37
2018-08-20T11:11:28.435Z,5.00
2018-08-20T11:13:56.586Z,5.10
2018-08-20T11:16:24.822Z,5.20
2018-08-20T11:18:53.156Z,5.67
2018-08-20T11:21:21.215Z,7.43
2018-08-20T11:23:49.366Z,8.20
2018-08-20T11:26:17.548Z,6.43
2018-08-20T11:28:45.719Z,8.90
2018-08-20T11:31:13.887Z,6.20
2018-08-20T11:33:42.099Z,7.53
2018-08-20T11:36:10.217Z,5.93
2018-08-20T11:38:38.352Z,5.57
2018-08-20T11:41:06.478Z,5.43
2018-08-20T11:43:34.622Z,4.73
2018-08-20T11:46:02.748Z,4.90
2018-08-20T11:48:31.002Z,4.50
2018-08-20T11:50:59.223Z,4.30
2018-08-20T11:53:27.385Z,5.30
2018-08-20T11:55:55.538Z,5.00
2018-08-20T11:58:23.670Z,5.80
2018-08-20T12:00:51.787Z,9.10
2018-08-20T12:03:19.999Z,5.87
2018-08-20T12:05:48.088Z,5.20
2018-08-20T12:08:16.228Z,6.80
2018-08-20T12:10:44.450Z,5.23
2018-08-20T12:13:12.646Z,5.87
2018-08-20T12:15:40.770Z,4.93
2018-08-20T12:18:09.000Z,5.93
2018-08-20T12:20:37.123Z,5.17
2018-08-20T12:23:05.325Z,7.27
2018-08-20T12:25:33.410Z,5.67
2018-08-20T12:28:01.563Z,6.20
2018-08-20T12:30:29.694Z,5.80
2018-08-20T12:32:57.824Z,6.00
2018-08-20T12:35:25.986Z,6.53
2018-08-20T12:37:54.103Z,6.80
2018-08-20T12:40:22.324Z,5.73
2018-08-20T12:42:50.363Z,6.73
2018-08-20T12:45:18.483Z,6.43
2018-08-20T12:47:46.600Z,6.80
2018-08-20T12:50:14.745Z,7.90
2018-08-20T12:52:42.871Z,6.70
2018-08-20T12:55:11.020Z,7.77
2018-08-20T12:57:39.154Z,7.80
2018-08-20T13:00:07.490Z,6.33
2018-08-20T13:02:35.592Z,5.93
2018-08-20T13:05:03.732Z,7.63
2018-08-20T13:07:31.834Z,6.60
2018-08-20T13:09:59.958Z,6.57
2018-08-20T13:12:28.066Z,5.53
2018-08-20T13:14:56.215Z,3.67
2018-08-20T13:17:24.317Z,3.10
2018-08-20T13:19:52.448Z,2.53
2018-08-20T13:22:20.559Z,2.83
2018-08-20T13:24:48.715Z,3.43
2018-08-20T13:27:16.846Z,2.47
2018-08-20T13:29:44.987Z,3.70
2018-08-20T13:32:13.227Z,2.57
2018-08-20T13:34:41.438Z,2.07
2018-08-20T13:37:09.654Z,4.30
2018-08-20T13:39:37.771Z,3.57
2018-08-20T13:42:05.942Z,2.70
2018-08-20T13:44:34.114Z,3.10
2018-08-20T13:47:02.402Z,2.90
2018-08-20T13:49:30.555Z,2.73
2018-08-20T13:51:58.700Z,4.10
2018-08-20T13:54:26.870Z,3.00
2018-08-20T13:56:55.173Z,4.10
2018-08-20T13:59:23.343Z,3.50
2018-08-20T14:01:51.529Z,5.00
2018-08-20T14:04:19.662Z,5.77
2018-08-20T14:06:47.843Z,4.20
2018-08-20T14:09:15.970Z,4.20
2018-08-20T14:11:44.175Z,6.10
2018-08-20T14:14:12.311Z,4.10
2018-08-20T14:16:40.509Z,5.30
2018-08-20T14:19:08.651Z,4.03
2018-08-20T14:21:36.834Z,3.47
2018-08-20T14:24:04.970Z,6.13
2018-08-20T14:26:33.144Z,2.90
2018-08-20T14:29:01.272Z,4.23
2018-08-20T14:31:29.450Z,4.80
2018-08-20T14:33:57.598Z,4.50
2018-08-20T14:36:25.754Z,5.23
2018-08-20T14:38:53.911Z,5.07
2018-08-20T14:41:22.065Z,5.00
2018-08-20T14:43:50.183Z,4.23
2018-08-20T14:46:21.640Z,4.27
2018-08-20T14:48:52.570Z,3.73
2018-08-20T14:51:20.714Z,5.23
2018-08-20T14:53:48.841Z,3.43
2018-08-20T14:56:16.962Z,6.30
2018-08-20T14:58:45.091Z,3.43
2018-08-20T15:01:13.207Z,4.67
2018-08-20T15:03:41.364Z,4.17
2018-08-20T15:06:09.474Z,4.30
2018-08-20T15:08:39.020Z,3.97
2018-08-20T15:11:07.171Z,4.17
2018-08-20T15:13:35.585Z,5.27
2018-08-20T15:16:03.847Z,4.63
2018-08-20T15:18:31.952Z,4.17
2018-08-20T15:21:00.091Z,5.33
2018-08-20T15:23:28.244Z,4.50
2018-08-20T15:25:56.494Z,3.27
2018-08-20T15:28:24.632Z,5.77
2018-08-20T15:30:52.766Z,2.93
2018-08-20T15:33:20.902Z,4.03
2018-08-20T15:35:49.030Z,3.33
2018-08-20T15:38:17.203Z,3.00
2018-08-20T15:40:45.351Z,3.73
2018-08-20T15:43:13.544Z,4.07
2018-08-20T15:45:41.670Z,3.43
2018-08-20T15:48:09.895Z,4.00
2018-08-20T15:50:38.046Z,3.00
2018-08-20T15:53:06.328Z,3.63
2018-08-20T15:55:34.391Z,4.27
2018-08-20T15:58:02.537Z,3.17
2018-08-20T16:00:30.667Z,3.70
2018-08-20T16:02:58.790Z,9.13
2018-08-20T16:05:26.918Z,3.67
2018-08-20T16:07:55.055Z,4.67
2018-08-20T16:10:23.206Z,3.27
2018-08-20T16:12:51.407Z,5.80
2018-08-20T16:15:19.569Z,7.53
2018-08-20T16:17:47.678Z,7.33
2018-08-20T16:20:15.814Z,6.90
2018-08-20T16:22:43.942Z,4.23
2018-08-20T16:25:12.094Z,3.13
2018-08-20T16:27:40.223Z,3.40
2018-08-20T16:30:10.595Z,3.80
2018-08-20T16:32:38.712Z,15.50
2018-08-20T16:35:08.442Z,8.60
2018-08-20T16:37:36.562Z,4.87
2018-08-20T16:40:05.300Z,3.60
2018-08-20T16:42:33.497Z,6.30
2018-08-20T16:45:01.661Z,3.97
2018-08-20T16:47:29.794Z,4.90
2018-08-20T16:49:57.923Z,5.70
2018-08-20T16:52:26.058Z,3.30
2018-08-20T16:54:54.184Z,4.60
2018-08-20T16:57:22.310Z,5.17
2018-08-20T16:59:50.451Z,5.60
2018-08-20T17:02:21.473Z,4.80
2018-08-20T17:04:49.583Z,5.67
2018-08-20T17:07:17.722Z,7.13
2018-08-20T17:09:46.702Z,7.20
2018-08-20T17:12:14.839Z,4.63
2018-08-20T17:14:42.968Z,4.00
2018-08-20T17:17:11.120Z,5.20
2018-08-20T17:19:39.226Z,4.37
2018-08-20T17:22:07.398Z,4.93
2018-08-20T17:24:38.694Z,4.97
2018-08-20T17:27:06.864Z,5.40
2018-08-20T17:29:34.992Z,5.10
2018-08-20T17:32:04.662Z,5.00
2018-08-20T17:34:32.789Z,5.47
2018-08-20T17:37:00.990Z,10.73
2018-08-20T17:39:29.127Z,11.13
2018-08-20T17:41:57.263Z,11.80
2018-08-20T17:44:25.396Z,16.03
2018-08-20T17:46:53.571Z,15.00
2018-08-20T17:49:26.981Z,15.87
2018-08-20T17:51:55.115Z,15.30
2018-08-20T17:54:23.251Z,15.33
2018-08-20T17:56:51.386Z,15.83
2018-08-20T17:59:20.787Z,16.60
2018-08-20T18:01:48.921Z,18.10
2018-08-20T18:04:18.536Z,17.30
2018-08-20T18:06:54.755Z,19.47
2018-08-20T18:09:22.912Z,15.03
2018-08-20T18:11:52.034Z,14.27
2018-08-20T18:14:22.391Z,15.63
2018-08-20T18:16:50.503Z,14.13
2018-08-20T18:19:18.694Z,14.43
2018-08-20T18:21:47.067Z,14.30
2018-08-20T18:24:17.298Z,14.20
2018-08-20T18:26:52.023Z,15.47
2018-08-20T18:29:20.155Z,14.27
2018-08-20T18:31:56.759Z,15.50
2018-08-20T18:34:24.916Z,17.60
2018-08-20T18:36:53.157Z,16.50
2018-08-20T18:39:21.359Z,16.80
2018-08-20T18:41:58.015Z,13.87
2018-08-20T18:44:26.169Z,15.60
2018-08-20T18:46:54.314Z,13.77
2018-08-20T18:49:23.111Z,11.87
2018-08-20T18:51:54.343Z,13.00
2018-08-20T18:54:22.514Z,12.57
2018-08-20T18:56:55.059Z,12.90
2018-08-20T18:59:23.223Z,12.83
2018-08-20T19:01:51.360Z,12.77
2018-08-20T19:04:19.770Z,12.47
2018-08-20T19:06:49.692Z,12.53
2018-08-20T19:09:17.820Z,13.83
2018-08-20T19:11:45.952Z,13.27
2018-08-20T19:14:14.097Z,12.00
2018-08-20T19:16:42.234Z,11.80
2018-08-20T19:19:10.371Z,13.53
2018-08-20T19:21:40.214Z,12.47
2018-08-20T19:24:09.214Z,12.23
2018-08-20T19:26:37.388Z,12.17
2018-08-20T19:29:15.414Z,12.20
2018-08-20T19:31:43.554Z,11.23
2018-08-20T19:34:11.678Z,12.60
2018-08-20T19:36:39.821Z,10.23
2018-08-20T19:39:07.970Z,10.60
2018-08-20T19:41:36.103Z,10.03
2018-08-20T19:44:04.225Z,11.23
2018-08-20T19:46:37.432Z,11.40
2018-08-20T19:49:10.243Z,10.40
2018-08-20T19:51:40.406Z,11.33
2018-08-20T19:54:10.119Z,12.43
2018-08-20T19:56:38.504Z,9.53
2018-08-20T19:59:06.883Z,11.40
2018-08-20T20:01:35.008Z,10.27
2018-08-20T20:04:03.125Z,10.17
2018-08-20T20:06:31.308Z,9.57
2018-08-20T20:09:05.470Z,9.37
2018-08-20T20:11:33.618Z,9.17
2018-08-20T20:14:02.880Z,9.17
2018-08-20T20:16:38.934Z,9.70
2018-08-20T20:19:07.227Z,8.63
2018-08-20T20:21:35.655Z,8.73
2018-08-20T20:24:03.796Z,8.60
2018-08-20T20:26:31.986Z,11.00
2018-08-20T20:29:00.297Z,10.40
2018-08-20T20:31:28.418Z,9.73
2018-08-20T20:33:56.634Z,8.60
2018-08-20T20:36:25.658Z,8.60
2018-08-20T20:38:54.261Z,9.83
2018-08-20T20:41:22.723Z,9.33
2018-08-20T20:43:50.880Z,12.57
2018-08-20T20:46:19.000Z,8.47
2018-08-20T20:48:47.144Z,8.57
2018-08-20T20:51:15.309Z,8.63
2018-08-20T20:53:43.459Z,9.00
2018-08-20T20:56:11.655Z,10.93
2018-08-20T20:58:40.256Z,8.90
2018-08-20T21:01:09.986Z,8.50
2018-08-20T21:03:38.108Z,8.97
2018-08-20T21:06:06.921Z,8.87
2018-08-20T21:08:40.899Z,8.40
2018-08-20T21:11:10.096Z,9.70
2018-08-20T21:13:38.499Z,9.57
2018-08-20T21:16:07.810Z,8.50
2018-08-20T21:18:45.841Z,8.67
2018-08-20T21:21:16.851Z,9.00
2018-08-20T21:23:45.011Z,8.07
2018-08-20T21:26:13.148Z,8.73
2018-08-20T21:28:46.407Z,10.33
2018-08-20T21:31:15.686Z,8.60
2018-08-20T21:33:44.370Z,8.63
2018-08-20T21:36:12.967Z,9.40
2018-08-20T21:38:41.183Z,9.13
2018-08-20T21:41:09.415Z,9.60
2018-08-20T21:43:52.335Z,7.97
2018-08-20T21:46:20.599Z,7.97
2018-08-20T21:48:48.809Z,8.23
2018-08-20T21:51:23.607Z,9.60
2018-08-20T21:53:51.758Z,8.80
2018-08-20T21:56:19.846Z,8.67
2018-08-20T21:58:47.952Z,8.63
2018-08-20T22:01:16.918Z,9.20
2018-08-20T22:03:45.282Z,9.73
2018-08-20T22:06:13.775Z,9.20
2018-08-20T22:08:42.262Z,8.83
2018-08-20T22:11:10.952Z,9.67
2018-08-20T22:13:39.334Z,9.30
2018-08-20T22:16:22.994Z,8.97
2018-08-20T22:18:55.539Z,8.90
2018-08-20T22:21:23.851Z,7.97
2018-08-20T22:23:52.518Z,10.03
2018-08-20T22:26:21.385Z,8.80
2018-08-20T22:28:51.537Z,8.73
2018-08-20T22:31:20.079Z,8.77
2018-08-20T22:33:54.818Z,8.73
2018-08-20T22:36:22.919Z,8.40
2018-08-20T22:38:58.333Z,8.67
2018-08-20T22:41:27.898Z,11.50
2018-08-20T22:43:56.036Z,8.70
2018-08-20T22:46:24.588Z,8.47
2018-08-20T22:48:56.211Z,10.53
2018-08-20T22:51:25.340Z,8.83
2018-08-20T22:53:55.591Z,9.70
2018-08-20T22:56:33.353Z,8.50
2018-08-20T22:59:07.077Z,8.70
2018-08-20T23:01:35.226Z,10.37
2018-08-20T23:04:03.379Z,9.20
2018-08-20T23:06:31.500Z,8.00
2018-08-20T23:09:04.420Z,8.97
2018-08-20T23:11:41.315Z,9.10
2018-08-20T23:14:11.058Z,8.40
2018-08-20T23:16:39.394Z,9.03
2018-08-20T23:19:08.194Z,8.97
2018-08-20T23:21:41.796Z,8.10
2018-08-20T23:24:11.049Z,8.47
2018-08-20T23:26:39.446Z,8.00
2018-08-20T23:29:07.849Z,7.63
2018-08-20T23:31:36.262Z,7.87
2018-08-20T23:34:07.598Z,7.87
2018-08-20T23:36:35.996Z,9.03
2018-08-20T23:39:06.814Z,8.60
2018-08-20T23:41:35.155Z,8.13
2018-08-20T23:44:03.618Z,8.40
2018-08-20T23:46:38.471Z,9.57
2018-08-20T23:49:06.578Z,8.17
2018-08-20T23:51:34.726Z,8.93
2018-08-20T23:54:02.947Z,7.73
2018-08-20T23:56:31.238Z,7.90
2018-08-20T23:58:59.799Z,9.07
